Time;durP1;ratioP1;P1;durP2;ratioP2;P2;SDS_P1;SDS_P2;PMS_P1;PMS_P2;Temp;Humidity;BMP_temperature;BMP_pressure;BME280_temperature;BME280_humidity;BME280_pressure;Samples;Min_cycle;Max_cycle;Signal;HPM_P1;HPM_P2
2022/05/21 00:01:52;;;;;;;;;;;;;;;;;;5096459;28;19912;-75
2022/05/21 00:04:41;;;;;;;;;;;;;;;;;;5096970;27;19973;-76
2022/05/21 00:07:28;;;;;;;;;;;;;;;;;;5095562;28;20006;-75
2022/05/21 00:10:14;;;;;;;;;;;;;;;;;;5087856;28;20037;-63
2022/05/21 00:13:00;;;;;;;;;;;;;;;;;;5093468;28;19908;-77
2022/05/21 00:15:45;;;;;;;;;;;;;;;;;;5094611;28;19912;-77
2022/05/21 00:18:30;;;;;;;;;;;;;;;;;;5092887;28;19913;-79
2022/05/21 00:21:16;;;;;;;;;;;;;;;;;;5094552;28;19908;-77
2022/05/21 00:24:01;;;;;;;;;;;;;;;;;;5087708;28;19956;-77
2022/05/21 00:26:47;;;;;;;;;;;;;;;;;;5095697;28;20363;-77
2022/05/21 00:29:33;;;;;;;;;;;;;;;;;;5094511;28;19973;-67
2022/05/21 00:32:18;;;;;;;;;;;;;;;;;;5093069;28;19909;-75
2022/05/21 00:35:04;;;;;;;;;;;;;;;;;;5091625;27;19916;-76
2022/05/21 00:37:49;;;;;;;;;;;;;;;;;;5099455;28;19916;-74
2022/05/21 00:40:35;;;;;;;;;;;;;;;;;;5093491;28;19919;-75
2022/05/21 00:43:21;;;;;;;;;;;;;;;;;;5091766;28;19912;-74
2022/05/21 00:46:06;;;;;;;;;;;;;;;;;;5085851;28;19916;-77
2022/05/21 00:48:51;;;;;;;;;;;;;;;;;;5090318;28;19961;-61
2022/05/21 00:51:37;;;;;;;;;;;;;;;;;;5095263;27;19920;-62
2022/05/21 00:54:22;;;;;;;;;;;;;;;;;;5091991;28;19966;-69
2022/05/21 00:57:08;;;;;;;;;;;;;;;;;;5094588;27;20367;-69
2022/05/21 00:59:53;;;;;;;;;;;;;;;;;;5090220;28;19951;-69
2022/05/21 01:02:39;;;;;;;;;;;;;;;;;;5093786;27;19912;-68
2022/05/21 01:05:24;;;;;;;;;;;;;;;;;;5084487;28;19924;-67
2022/05/21 01:08:10;;;;;;;;;;;;;;;;;;5079723;28;19908;-71
2022/05/21 01:10:55;;;;;;;;;;;;;;;;;;5092431;28;19920;-71
2022/05/21 01:13:41;;;;;;;;;;;;;;;;;;5085870;28;19927;-72
2022/05/21 01:16:26;;;;;;;;;;;;;;;;;;5096951;28;19912;-72
2022/05/21 01:19:12;;;;;;;;;;;;;;;;;;5087285;28;19944;-67
2022/05/21 01:21:59;;;;;;;;;;;;;;;;;;5092974;28;19920;-68
2022/05/21 01:24:44;;;;;;;;;;;;;;;;;;5094055;28;20332;-70
2022/05/21 01:27:29;;;;;;;;;;;;;;;;;;5095691;27;19947;-63
2022/05/21 01:30:15;;;;;;;;;;;;;;;;;;5081530;28;19969;-62
2022/05/21 01:33:00;;;;;;;;;;;;;;;;;;5096510;28;19922;-63
2022/05/21 01:35:46;;;;;;;;;;;;;;;;;;5103766;27;19912;-62
2022/05/21 01:38:31;;;;;;;;;;;;;;;;;;5106112;27;19912;-62
2022/05/21 01:41:17;;;;;;;;;;;;;;;;;;5115568;27;19998;-66
2022/05/21 01:47:07;;;;;;;;;;;;;;;;;;5081109;28;20255;-74
2022/05/21 01:49:52;;;;;;;;;;;;;;;;;;5095439;27;19970;-74
2022/05/21 01:52:38;;;;;;;;;;;;;;;;;;5093500;27;19916;-73
2022/05/21 01:55:23;;;;;;;;;;;;;;;;;;5094692;27;19912;-73
2022/05/21 01:58:09;;;;;;;;;;;;;;;;;;5093883;28;19915;-73
2022/05/21 02:00:54;;;;;;;;;;;;;;;;;;5080094;28;19934;-72
2022/05/21 02:03:40;;;;;;;;;;;;;;;;;;5096967;27;19916;-65
2022/05/21 02:06:25;;;;;;;;;;;;;;;;;;5104028;27;19908;-63
2022/05/21 02:09:11;;;;;;;;;;;;;;;;;;5103653;27;19934;-65
2022/05/21 02:11:56;;;;;;;;;;;;;;;;;;5108201;28;19915;-64
2022/05/21 02:14:42;;;;;;;;;;;;;;;;;;5095518;27;19912;-64
2022/05/21 02:17:27;;;;;;;;;;;;;;;;;;5093948;28;19951;-65
2022/05/21 02:20:13;;;;;;;;;;;;;;;;;;5092821;28;20264;-61
2022/05/21 02:22:58;;;;;;;;;;;;;;;;;;5081904;28;19908;-65
2022/05/21 02:25:43;;;;;;;;;;;;;;;;;;5108789;28;19919;-65
2022/05/21 02:28:29;;;;;;;;;;;;;;;;;;5104861;28;19953;-67
2022/05/21 02:31:14;;;;;;;;;;;;;;;;;;5105096;28;19920;-66
2022/05/21 02:34:00;;;;;;;;;;;;;;;;;;5095893;27;19908;-67
2022/05/21 02:39:50;;;;;;;;;;;;;;;;;;5080830;28;20329;-65
2022/05/21 02:42:45;;;;;;;;;;;;;;;;;;5092794;28;20385;-65
2022/05/21 02:45:31;;;;;;;;;;;;;;;;;;5094163;28;20423;-65
2022/05/21 02:48:17;;;;;;;;;;;;;;;;;;5083845;28;19915;-66
2022/05/21 02:51:02;;;;;;;;;;;;;;;;;;5110744;28;20014;-65
2022/05/21 02:53:47;;;;;;;;;;;;;;;;;;5085372;27;19958;-64
2022/05/21 02:56:35;;;;;;;;;;;;;;;;;;5090899;28;20275;-72
2022/05/21 02:59:20;;;;;;;;;;;;;;;;;;5080907;28;19915;-72
2022/05/21 03:02:06;;;;;;;;;;;;;;;;;;5089319;28;20016;-72
2022/05/21 03:04:51;;;;;;;;;;;;;;;;;;5098719;28;19973;-74
2022/05/21 03:07:37;;;;;;;;;;;;;;;;;;5097029;28;19931;-73
2022/05/21 03:10:22;;;;;;;;;;;;;;;;;;5091382;28;19927;-73
2022/05/21 03:13:08;;;;;;;;;;;;;;;;;;5091142;28;19920;-74
2022/05/21 03:15:53;;;;;;;;;;;;;;;;;;5092403;28;19912;-61
2022/05/21 03:18:39;;;;;;;;;;;;;;;;;;5093847;28;19933;-66
2022/05/21 03:21:24;;;;;;;;;;;;;;;;;;5093693;28;19935;-65
2022/05/21 03:24:10;;;;;;;;;;;;;;;;;;5096780;28;19908;-65
2022/05/21 03:26:55;;;;;;;;;;;;;;;;;;5099428;28;19915;-65
2022/05/21 03:29:41;;;;;;;;;;;;;;;;;;5079335;28;19912;-66
2022/05/21 03:32:26;;;;;;;;;;;;;;;;;;5100714;28;19914;-74
2022/05/21 03:35:12;;;;;;;;;;;;;;;;;;5104140;28;19907;-72
2022/05/21 03:37:57;;;;;;;;;;;;;;;;;;5100183;27;20318;-72
2022/05/21 03:40:43;;;;;;;;;;;;;;;;;;5082987;28;20367;-72
2022/05/21 03:49:37;;;;;;;;;;;;;;;;;;5031492;28;19920;-71
2022/05/21 03:52:22;;;;;;;;;;;;;;;;;;5000729;28;19957;-65
2022/05/21 03:55:07;;;;;;;;;;;;;;;;;;4922380;29;20445;-61
2022/05/21 03:57:53;;;;;;;;;;;;;;;;;;4944539;28;19954;-60
2022/05/21 04:00:39;;;;;;;;;;;;;;;;;;4952558;29;20358;-60
2022/05/21 04:03:25;;;;;;;;;;;;;;;;;;4939421;28;19911;-61
2022/05/21 04:06:12;;;;;;;;;;;;;;;;;;4942303;28;19966;-60
2022/05/21 04:08:57;;;;;;;;;;;;;;;;;;4951875;28;19917;-68
2022/05/21 04:11:43;;;;;;;;;;;;;;;;;;4953579;29;20294;-68
2022/05/21 04:14:29;;;;;;;;;;;;;;;;;;4953052;28;19917;-67
2022/05/21 04:17:16;;;;;;;;;;;;;;;;;;4957620;28;19911;-69
2022/05/21 04:20:01;;;;;;;;;;;;;;;;;;4957073;28;19910;-69
2022/05/21 04:22:47;;;;;;;;;;;;;;;;;;4942701;28;19910;-69
2022/05/21 04:25:32;;;;;;;;;;;;;;;;;;4956591;28;19911;-67
2022/05/21 04:28:18;;;;;;;;;;;;;;;;;;4944009;29;19911;-68
2022/05/21 04:31:03;;;;;;;;;;;;;;;;;;4937455;29;19958;-75
2022/05/21 04:33:48;;;;;;;;;;;;;;;;;;4937088;29;20331;-75
2022/05/21 04:36:34;;;;;;;;;;;;;;;;;;4912180;29;19915;-73
2022/05/21 04:39:19;;;;;;;;;;;;;;;;;;4936919;29;20085;-74
2022/05/21 04:42:05;;;;;;;;;;;;;;;;;;4937157;29;19946;-73
2022/05/21 04:44:50;;;;;;;;;;;;;;;;;;4937163;29;20017;-74
2022/05/21 04:47:36;;;;;;;;;;;;;;;;;;4936810;29;19958;-64
2022/05/21 04:50:21;;;;;;;;;;;;;;;;;;4936886;29;19929;-66
2022/05/21 04:53:07;;;;;;;;;;;;;;;;;;4937665;28;20373;-66
2022/05/21 04:55:52;;;;;;;;;;;;;;;;;;4961810;28;19962;-67
2022/05/21 04:58:38;;;;;;;;;;;;;;;;;;4972164;28;19910;-66
2022/05/21 05:01:23;;;;;;;;;;;;;;;;;;4972871;28;19914;-67
2022/05/21 05:04:09;;;;;;;;;;;;;;;;;;4962538;28;20278;-61
2022/05/21 05:06:54;;;;;;;;;;;;;;;;;;4975267;28;19914;-71
2022/05/21 05:09:40;;;;;;;;;;;;;;;;;;4974045;28;19922;-72
2022/05/21 05:12:25;;;;;;;;;;;;;;;;;;4973488;28;20358;-72
2022/05/21 05:15:11;;;;;;;;;;;;;;;;;;4976155;28;19910;-71
2022/05/21 05:17:56;;;;;;;;;;;;;;;;;;4975887;28;20254;-72
2022/05/21 05:20:42;;;;;;;;;;;;;;;;;;4973251;28;19914;-72
2022/05/21 05:23:27;;;;;;;;;;;;;;;;;;4976357;28;19980;-65
2022/05/21 05:26:12;;;;;;;;;;;;;;;;;;4975288;28;19910;-67
2022/05/21 05:28:58;;;;;;;;;;;;;;;;;;4974113;28;19910;-66
2022/05/21 05:31:43;;;;;;;;;;;;;;;;;;4964496;28;19921;-66
2022/05/21 05:34:29;;;;;;;;;;;;;;;;;;4973884;28;20341;-66
2022/05/21 05:37:14;;;;;;;;;;;;;;;;;;4975288;28;19921;-65
2022/05/21 05:40:00;;;;;;;;;;;;;;;;;;4961236;28;20362;-67
2022/05/21 05:42:48;;;;;;;;;;;;;;;;;;4973793;28;19914;-63
2022/05/21 05:45:33;;;;;;;;;;;;;;;;;;4974332;28;19918;-66
2022/05/21 05:48:19;;;;;;;;;;;;;;;;;;4961029;28;19910;-67
2022/05/21 05:51:04;;;;;;;;;;;;;;;;;;4973319;28;20039;-66
2022/05/21 05:53:51;;;;;;;;;;;;;;;;;;4996424;28;20266;-66
2022/05/21 05:56:36;;;;;;;;;;;;;;;;;;5018110;28;19984;-65
2022/05/21 06:05:44;;;;;;;;;;;;;;;;;;5004926;28;19920;-67
2022/05/21 06:08:29;;;;;;;;;;;;;;;;;;5015588;28;19933;-66
2022/05/21 06:11:15;;;;;;;;;;;;;;;;;;5016082;28;19921;-66
2022/05/21 06:14:00;;;;;;;;;;;;;;;;;;5023687;28;19909;-66
2022/05/21 06:16:46;;;;;;;;;;;;;;;;;;5027265;28;19909;-66
2022/05/21 06:19:31;;;;;;;;;;;;;;;;;;5018038;28;20357;-71
2022/05/21 06:22:17;;;;;;;;;;;;;;;;;;5031343;28;19913;-65
2022/05/21 06:25:02;;;;;;;;;;;;;;;;;;5032091;28;19909;-63
2022/05/21 06:27:47;;;;;;;;;;;;;;;;;;5026713;28;19914;-65
2022/05/21 06:30:33;;;;;;;;;;;;;;;;;;5022511;28;19921;-66
2022/05/21 06:33:18;;;;;;;;;;;;;;;;;;5021419;28;20324;-64
2022/05/21 06:36:05;;;;;;;;;;;;;;;;;;5026987;28;20041;-67
2022/05/21 06:38:50;;;;;;;;;;;;;;;;;;5023661;28;19917;-71
2022/05/21 06:41:35;;;;;;;;;;;;;;;;;;5019637;28;19992;-71
2022/05/21 06:44:21;;;;;;;;;;;;;;;;;;5016614;28;19949;-71
2022/05/21 06:47:06;;;;;;;;;;;;;;;;;;5031948;28;19913;-71
2022/05/21 06:49:52;;;;;;;;;;;;;;;;;;5029549;28;19986;-72
2022/05/21 06:52:39;;;;;;;;;;;;;;;;;;5031886;28;19909;-74
2022/05/21 06:55:24;;;;;;;;;;;;;;;;;;5045389;28;20400;-68
2022/05/21 06:58:10;;;;;;;;;;;;;;;;;;5049918;28;19916;-76
2022/05/21 07:00:55;;;;;;;;;;;;;;;;;;5040229;28;19919;-75
2022/05/21 07:03:41;;;;;;;;;;;;;;;;;;5049849;28;20330;-75
2022/05/21 07:09:30;;;;;;;;;;;;;;;;;;5049825;28;19913;-74
2022/05/21 07:12:16;;;;;;;;;;;;;;;;;;5043578;28;20023;-74
2022/05/21 07:15:01;;;;;;;;;;;;;;;;;;5049500;28;19928;-74
2022/05/21 07:17:47;;;;;;;;;;;;;;;;;;5045914;28;20295;-71
2022/05/21 07:20:32;;;;;;;;;;;;;;;;;;5054799;28;19909;-72
2022/05/21 07:23:17;;;;;;;;;;;;;;;;;;5050392;28;19964;-70
2022/05/21 07:26:03;;;;;;;;;;;;;;;;;;5049229;28;19959;-72
2022/05/21 07:28:48;;;;;;;;;;;;;;;;;;5052220;28;19909;-69
2022/05/21 07:31:34;;;;;;;;;;;;;;;;;;5039582;28;20378;-74
2022/05/21 07:34:19;;;;;;;;;;;;;;;;;;5051142;28;20260;-60
2022/05/21 07:37:05;;;;;;;;;;;;;;;;;;5033625;28;19921;-62
2022/05/21 07:39:50;;;;;;;;;;;;;;;;;;5038634;28;20019;-60
2022/05/21 07:42:36;;;;;;;;;;;;;;;;;;5051527;28;19908;-62
2022/05/21 07:45:21;;;;;;;;;;;;;;;;;;5040683;28;19916;-62
2022/05/21 07:48:07;;;;;;;;;;;;;;;;;;5050924;28;19920;-62
2022/05/21 07:50:53;;;;;;;;;;;;;;;;;;5054449;28;19944;-67
2022/05/21 07:53:38;;;;;;;;;;;;;;;;;;5054800;28;19963;-67
2022/05/21 07:56:23;;;;;;;;;;;;;;;;;;5045225;28;19952;-67
2022/05/21 07:59:09;;;;;;;;;;;;;;;;;;5037383;28;19909;-65
2022/05/21 08:01:54;;;;;;;;;;;;;;;;;;5070746;28;20359;-66
2022/05/21 08:04:40;;;;;;;;;;;;;;;;;;5061257;28;20280;-68
2022/05/21 08:07:25;;;;;;;;;;;;;;;;;;5041340;28;20257;-67
2022/05/21 08:10:11;;;;;;;;;;;;;;;;;;5055461;28;19917;-63
2022/05/21 08:12:56;;;;;;;;;;;;;;;;;;5066789;28;19909;-68
2022/05/21 08:15:42;;;;;;;;;;;;;;;;;;5069406;28;20013;-67
2022/05/21 08:18:28;;;;;;;;;;;;;;;;;;5048415;28;19909;-69
2022/05/21 08:21:14;;;;;;;;;;;;;;;;;;5037263;28;20025;-67
2022/05/21 08:27:03;;;;;;;;;;;;;;;;;;5052974;28;19967;-63
2022/05/21 08:29:49;;;;;;;;;;;;;;;;;;5035151;28;19913;-61
2022/05/21 08:32:34;;;;;;;;;;;;;;;;;;5054625;28;19968;-62
2022/05/21 08:35:20;;;;;;;;;;;;;;;;;;5054592;28;19920;-61
2022/05/21 08:38:05;;;;;;;;;;;;;;;;;;5053971;28;19963;-64
2022/05/21 08:40:51;;;;;;;;;;;;;;;;;;5055791;28;20003;-61
2022/05/21 08:43:36;;;;;;;;;;;;;;;;;;5054606;28;20383;-62
2022/05/21 08:46:22;;;;;;;;;;;;;;;;;;5051338;28;19913;-67
2022/05/21 08:49:07;;;;;;;;;;;;;;;;;;5053292;28;19912;-67
2022/05/21 08:51:53;;;;;;;;;;;;;;;;;;5050428;28;19917;-66
2022/05/21 08:54:38;;;;;;;;;;;;;;;;;;5058228;28;19917;-66
2022/05/21 08:57:23;;;;;;;;;;;;;;;;;;5042041;28;19909;-66
2022/05/21 09:00:09;;;;;;;;;;;;;;;;;;5049880;28;20285;-69
2022/05/21 09:02:54;;;;;;;;;;;;;;;;;;5060157;28;19920;-67
2022/05/21 09:05:40;;;;;;;;;;;;;;;;;;5059847;28;19909;-75
2022/05/21 09:08:25;;;;;;;;;;;;;;;;;;5061258;28;19943;-68
2022/05/21 09:11:11;;;;;;;;;;;;;;;;;;5045809;28;20287;-67
2022/05/21 09:13:56;;;;;;;;;;;;;;;;;;5043399;28;19913;-67
2022/05/21 09:16:54;;;;;;;;;;;;;;;;;;5055170;28;20156;-66
2022/05/21 09:19:40;;;;;;;;;;;;;;;;;;5027926;28;19913;-67
2022/05/21 09:22:26;;;;;;;;;;;;;;;;;;5049154;28;19913;-63
2022/05/21 09:25:11;;;;;;;;;;;;;;;;;;5054278;28;19943;-70
2022/05/21 09:27:57;;;;;;;;;;;;;;;;;;5033053;28;20382;-69
2022/05/21 09:30:42;;;;;;;;;;;;;;;;;;5048066;28;19920;-70
2022/05/21 09:33:28;;;;;;;;;;;;;;;;;;5052540;28;19913;-69
2022/05/21 09:36:13;;;;;;;;;;;;;;;;;;5054197;28;19999;-69
2022/05/21 09:38:59;;;;;;;;;;;;;;;;;;5041084;28;19916;-69
2022/05/21 09:41:44;;;;;;;;;;;;;;;;;;5035786;28;20323;-63
2022/05/21 09:47:34;;;;;;;;;;;;;;;;;;5052745;28;19913;-61
2022/05/21 09:50:20;;;;;;;;;;;;;;;;;;5032295;28;19921;-61
2022/05/21 09:53:05;;;;;;;;;;;;;;;;;;5049257;28;19913;-61
2022/05/21 09:55:51;;;;;;;;;;;;;;;;;;5053533;28;19913;-63
2022/05/21 09:58:36;;;;;;;;;;;;;;;;;;5052932;28;19945;-66
2022/05/21 10:01:22;;;;;;;;;;;;;;;;;;5049015;28;20004;-71
2022/05/21 10:04:07;;;;;;;;;;;;;;;;;;5038871;28;19913;-69
2022/05/21 10:06:53;;;;;;;;;;;;;;;;;;5066697;28;19955;-69
2022/05/21 10:12:42;;;;;;;;;;;;;;;;;;5041458;28;20379;-70
2022/05/21 10:15:29;;;;;;;;;;;;;;;;;;5050181;28;19909;-69
2022/05/21 10:18:14;;;;;;;;;;;;;;;;;;5054318;28;19912;-73
2022/05/21 10:20:59;;;;;;;;;;;;;;;;;;5064824;28;20007;-72
2022/05/21 10:23:45;;;;;;;;;;;;;;;;;;5048684;28;20139;-74
2022/05/21 10:26:30;;;;;;;;;;;;;;;;;;5041577;28;19909;-73
2022/05/21 10:29:16;;;;;;;;;;;;;;;;;;5048731;28;19909;-74
2022/05/21 10:32:02;;;;;;;;;;;;;;;;;;5016668;28;19991;-72
2022/05/21 10:34:48;;;;;;;;;;;;;;;;;;5031894;28;19909;-71
2022/05/21 10:37:34;;;;;;;;;;;;;;;;;;5047585;28;20008;-68
2022/05/21 10:40:19;;;;;;;;;;;;;;;;;;5049946;28;19914;-66
2022/05/21 10:43:06;;;;;;;;;;;;;;;;;;5052581;28;20333;-69
2022/05/21 10:45:52;;;;;;;;;;;;;;;;;;5052167;28;19955;-67
2022/05/21 10:48:38;;;;;;;;;;;;;;;;;;5042036;28;19948;-67
2022/05/21 10:51:23;;;;;;;;;;;;;;;;;;5039114;28;20331;-68
2022/05/21 10:54:09;;;;;;;;;;;;;;;;;;5047106;28;19917;-66
2022/05/21 10:56:56;;;;;;;;;;;;;;;;;;5049203;28;21263;-67
2022/05/21 10:59:41;;;;;;;;;;;;;;;;;;5061999;28;20364;-66
2022/05/21 11:02:27;;;;;;;;;;;;;;;;;;5039156;28;19959;-67
2022/05/21 11:05:12;;;;;;;;;;;;;;;;;;5039917;28;19920;-66
2022/05/21 11:07:58;;;;;;;;;;;;;;;;;;5053138;28;19913;-67
2022/05/21 11:10:43;;;;;;;;;;;;;;;;;;5060274;28;19920;-68
2022/05/21 11:13:29;;;;;;;;;;;;;;;;;;5066815;28;19916;-66
2022/05/21 11:16:14;;;;;;;;;;;;;;;;;;5040520;28;19971;-65
2022/05/21 11:19:00;;;;;;;;;;;;;;;;;;5064215;28;19959;-66
2022/05/21 11:21:46;;;;;;;;;;;;;;;;;;5064011;28;19909;-67
2022/05/21 11:24:31;;;;;;;;;;;;;;;;;;5068953;28;19987;-66
2022/05/21 11:27:18;;;;;;;;;;;;;;;;;;5043990;28;19917;-66
2022/05/21 11:30:04;;;;;;;;;;;;;;;;;;5065701;28;20812;-66
2022/05/21 11:39:01;;;;;;;;;;;;;;;;;;5041692;28;19914;-62
2022/05/21 11:41:47;;;;;;;;;;;;;;;;;;5044462;28;20010;-62
2022/05/21 11:47:37;;;;;;;;;;;;;;;;;;5058576;28;20380;-62
2022/05/21 11:50:22;;;;;;;;;;;;;;;;;;5047531;28;20261;-74
2022/05/21 11:53:08;;;;;;;;;;;;;;;;;;5054429;28;19948;-61
2022/05/21 11:55:54;;;;;;;;;;;;;;;;;;5056032;28;20340;-62
2022/05/21 11:58:39;;;;;;;;;;;;;;;;;;5043158;28;19920;-62
2022/05/21 12:01:24;;;;;;;;;;;;;;;;;;5056151;28;19912;-62
2022/05/21 12:04:10;;;;;;;;;;;;;;;;;;5049258;28;19912;-61
2022/05/21 12:06:56;;;;;;;;;;;;;;;;;;5045378;28;20020;-61
2022/05/21 12:09:41;;;;;;;;;;;;;;;;;;5055611;28;19909;-67
2022/05/21 12:12:28;;;;;;;;;;;;;;;;;;5068251;28;19919;-62
2022/05/21 12:15:13;;;;;;;;;;;;;;;;;;5050721;28;19913;-62
2022/05/21 12:18:03;;;;;;;;;;;;;;;;;;5036280;28;19979;-62
2022/05/21 12:20:49;;;;;;;;;;;;;;;;;;5067282;28;19915;-62
2022/05/21 12:23:35;;;;;;;;;;;;;;;;;;5056150;28;19913;-62
2022/05/21 12:26:20;;;;;;;;;;;;;;;;;;5061663;28;19935;-71
2022/05/21 12:29:07;;;;;;;;;;;;;;;;;;5041234;28;19913;-75
2022/05/21 12:31:53;;;;;;;;;;;;;;;;;;5053282;28;19925;-75
2022/05/21 12:34:38;;;;;;;;;;;;;;;;;;5054940;28;20031;-74
2022/05/21 12:37:24;;;;;;;;;;;;;;;;;;5052404;28;19944;-74
2022/05/21 12:40:09;;;;;;;;;;;;;;;;;;5054951;28;19920;-74
2022/05/21 12:42:57;;;;;;;;;;;;;;;;;;5054624;28;19909;-75
2022/05/21 12:45:44;;;;;;;;;;;;;;;;;;5054801;28;19959;-72
2022/05/21 12:48:31;;;;;;;;;;;;;;;;;;5043608;28;19919;-66
2022/05/21 12:51:16;;;;;;;;;;;;;;;;;;5040982;28;19940;-65
2022/05/21 12:54:02;;;;;;;;;;;;;;;;;;5055202;28;20327;-65
2022/05/21 12:56:47;;;;;;;;;;;;;;;;;;5053949;28;19913;-65
2022/05/21 12:59:35;;;;;;;;;;;;;;;;;;5053112;28;19913;-65
2022/05/21 13:02:20;;;;;;;;;;;;;;;;;;5040832;28;19909;-67
2022/05/21 13:05:07;;;;;;;;;;;;;;;;;;5052452;28;19921;-62
2022/05/21 13:07:52;;;;;;;;;;;;;;;;;;5054635;28;19908;-73
2022/05/21 13:10:38;;;;;;;;;;;;;;;;;;5052767;28;20030;-74
2022/05/21 13:13:23;;;;;;;;;;;;;;;;;;5054654;28;19916;-74
2022/05/21 13:16:09;;;;;;;;;;;;;;;;;;5045847;28;19920;-75
2022/05/21 13:18:54;;;;;;;;;;;;;;;;;;5054034;28;20387;-72
2022/05/21 13:21:43;;;;;;;;;;;;;;;;;;5043586;28;20430;-65
2022/05/21 13:24:28;;;;;;;;;;;;;;;;;;5046606;28;19960;-68
2022/05/21 13:27:15;;;;;;;;;;;;;;;;;;5047587;28;19909;-68
2022/05/21 13:30:01;;;;;;;;;;;;;;;;;;5053904;28;19958;-68
2022/05/21 13:32:46;;;;;;;;;;;;;;;;;;5053428;28;20299;-69
2022/05/21 13:35:32;;;;;;;;;;;;;;;;;;5052086;28;19913;-68
2022/05/21 13:38:17;;;;;;;;;;;;;;;;;;5042774;28;19910;-68
2022/05/21 13:41:05;;;;;;;;;;;;;;;;;;5053485;28;19963;-72
2022/05/21 13:43:51;;;;;;;;;;;;;;;;;;5052937;28;19912;-65
2022/05/21 13:46:36;;;;;;;;;;;;;;;;;;5037188;28;19913;-66
2022/05/21 13:49:22;;;;;;;;;;;;;;;;;;5048988;28;20372;-67
2022/05/21 13:52:07;;;;;;;;;;;;;;;;;;5045021;28;19924;-67
2022/05/21 13:54:53;;;;;;;;;;;;;;;;;;5051240;28;19917;-68
2022/05/21 13:57:38;;;;;;;;;;;;;;;;;;5053581;28;20358;-67
2022/05/21 14:00:24;;;;;;;;;;;;;;;;;;5067676;28;19908;-71
2022/05/21 14:03:10;;;;;;;;;;;;;;;;;;5058742;28;20303;-62
2022/05/21 14:05:55;;;;;;;;;;;;;;;;;;5049754;28;19919;-63
2022/05/21 14:08:41;;;;;;;;;;;;;;;;;;5058022;28;19909;-62
2022/05/21 14:11:26;;;;;;;;;;;;;;;;;;5064034;28;20303;-62
2022/05/21 14:14:12;;;;;;;;;;;;;;;;;;5049156;28;19920;-60
2022/05/21 14:16:57;;;;;;;;;;;;;;;;;;5051510;28;20387;-65
2022/05/21 14:19:43;;;;;;;;;;;;;;;;;;5026828;28;19909;-73
2022/05/21 14:22:30;;;;;;;;;;;;;;;;;;5067691;28;19916;-73
2022/05/21 14:25:16;;;;;;;;;;;;;;;;;;5041774;28;19913;-73
2022/05/21 14:28:01;;;;;;;;;;;;;;;;;;5040290;28;19980;-72
2022/05/21 14:30:47;;;;;;;;;;;;;;;;;;5053042;28;19917;-73
2022/05/21 14:33:32;;;;;;;;;;;;;;;;;;5045006;28;20376;-73
2022/05/21 14:36:18;;;;;;;;;;;;;;;;;;5051344;28;19913;-66
2022/05/21 14:39:03;;;;;;;;;;;;;;;;;;5053774;28;20008;-61
2022/05/21 14:41:49;;;;;;;;;;;;;;;;;;5052447;28;19932;-62
2022/05/21 14:44:35;;;;;;;;;;;;;;;;;;5036823;28;19912;-62
2022/05/21 14:53:29;;;;;;;;;;;;;;;;;;5048816;28;19917;-68
2022/05/21 14:56:15;;;;;;;;;;;;;;;;;;5045574;28;19921;-66
2022/05/21 14:59:00;;;;;;;;;;;;;;;;;;5038431;28;19924;-65
2022/05/21 15:01:46;;;;;;;;;;;;;;;;;;5051537;28;20268;-67
2022/05/21 15:04:32;;;;;;;;;;;;;;;;;;5050637;28;19916;-67
2022/05/21 15:07:17;;;;;;;;;;;;;;;;;;5060887;28;20254;-67
2022/05/21 15:10:03;;;;;;;;;;;;;;;;;;5046010;28;20390;-66
2022/05/21 15:12:48;;;;;;;;;;;;;;;;;;5040417;28;19991;-65
2022/05/21 15:15:33;;;;;;;;;;;;;;;;;;5050556;28;19935;-74
2022/05/21 15:18:19;;;;;;;;;;;;;;;;;;5048826;28;20339;-74
2022/05/21 15:21:04;;;;;;;;;;;;;;;;;;5036988;28;19970;-73
2022/05/21 15:23:51;;;;;;;;;;;;;;;;;;5038911;28;19913;-74
2022/05/21 15:26:36;;;;;;;;;;;;;;;;;;5052428;28;19915;-73
2022/05/21 15:29:22;;;;;;;;;;;;;;;;;;5048686;28;19963;-73
2022/05/21 15:32:08;;;;;;;;;;;;;;;;;;5046132;28;19944;-66
2022/05/21 15:34:53;;;;;;;;;;;;;;;;;;5039884;28;19909;-63
2022/05/21 15:37:39;;;;;;;;;;;;;;;;;;5037175;28;19909;-62
2022/05/21 15:40:25;;;;;;;;;;;;;;;;;;5041150;28;19979;-62
2022/05/21 15:43:10;;;;;;;;;;;;;;;;;;5051309;28;19915;-62
2022/05/21 15:45:56;;;;;;;;;;;;;;;;;;5052533;28;19909;-63
2022/05/21 15:48:42;;;;;;;;;;;;;;;;;;5042091;28;19909;-69
2022/05/21 15:51:28;;;;;;;;;;;;;;;;;;5036424;28;19921;-65
2022/05/21 15:54:14;;;;;;;;;;;;;;;;;;5051585;28;20340;-66
2022/05/21 15:56:59;;;;;;;;;;;;;;;;;;5052104;28;20335;-66
2022/05/21 15:59:45;;;;;;;;;;;;;;;;;;5058733;28;20434;-66
2022/05/21 16:02:36;;;;;;;;;;;;;;;;;;5045994;28;19909;-65
2022/05/21 16:05:22;;;;;;;;;;;;;;;;;;5057186;28;19909;-66
2022/05/21 16:08:07;;;;;;;;;;;;;;;;;;5061368;28;19915;-67
2022/05/21 16:10:53;;;;;;;;;;;;;;;;;;5056811;28;20431;-66
2022/05/21 16:13:39;;;;;;;;;;;;;;;;;;5069681;28;20264;-66
2022/05/21 16:16:24;;;;;;;;;;;;;;;;;;5055528;28;19913;-66
2022/05/21 16:19:10;;;;;;;;;;;;;;;;;;5052828;28;19996;-65
2022/05/21 16:21:55;;;;;;;;;;;;;;;;;;5049261;28;20289;-66
2022/05/21 16:24:41;;;;;;;;;;;;;;;;;;5049842;28;19908;-65
2022/05/21 16:27:26;;;;;;;;;;;;;;;;;;5045271;28;20277;-64
2022/05/21 16:30:12;;;;;;;;;;;;;;;;;;5044962;28;20071;-61
2022/05/21 16:32:57;;;;;;;;;;;;;;;;;;5049868;28;19909;-62
2022/05/21 16:35:43;;;;;;;;;;;;;;;;;;5064804;28;19914;-61
2022/05/21 16:38:28;;;;;;;;;;;;;;;;;;5055472;28;19943;-63
2022/05/21 16:41:14;;;;;;;;;;;;;;;;;;5053844;28;19923;-63
2022/05/21 16:43:59;;;;;;;;;;;;;;;;;;5042234;28;20387;-66
2022/05/21 16:46:45;;;;;;;;;;;;;;;;;;5042395;28;19947;-74
2022/05/21 16:49:30;;;;;;;;;;;;;;;;;;5062935;28;19912;-75
2022/05/21 16:52:16;;;;;;;;;;;;;;;;;;5054184;28;20345;-75
2022/05/21 16:55:01;;;;;;;;;;;;;;;;;;5054928;28;19917;-73
2022/05/21 16:57:47;;;;;;;;;;;;;;;;;;5054788;28;19916;-73
2022/05/21 17:00:32;;;;;;;;;;;;;;;;;;5048714;28;20379;-73
2022/05/21 17:03:18;;;;;;;;;;;;;;;;;;5041274;28;19909;-61
2022/05/21 17:06:03;;;;;;;;;;;;;;;;;;5035352;28;19944;-61
2022/05/21 17:08:49;;;;;;;;;;;;;;;;;;5049420;28;21396;-62
2022/05/21 17:11:34;;;;;;;;;;;;;;;;;;5046648;28;19920;-60
2022/05/21 17:14:20;;;;;;;;;;;;;;;;;;5053144;28;20412;-61
2022/05/21 17:17:06;;;;;;;;;;;;;;;;;;5054809;28;20003;-62
2022/05/21 17:19:51;;;;;;;;;;;;;;;;;;5057395;28;20304;-64
2022/05/21 17:22:37;;;;;;;;;;;;;;;;;;5051643;28;19908;-62
2022/05/21 17:25:22;;;;;;;;;;;;;;;;;;5054588;28;20023;-67
2022/05/21 17:31:12;;;;;;;;;;;;;;;;;;5048766;28;19917;-66
2022/05/21 17:33:57;;;;;;;;;;;;;;;;;;5053762;28;20392;-65
2022/05/21 17:36:43;;;;;;;;;;;;;;;;;;5043256;28;19909;-67
2022/05/21 17:39:28;;;;;;;;;;;;;;;;;;5050746;28;19959;-69
2022/05/21 17:42:14;;;;;;;;;;;;;;;;;;5053900;28;19940;-68
2022/05/21 17:45:00;;;;;;;;;;;;;;;;;;5039671;28;19996;-69
2022/05/21 17:47:45;;;;;;;;;;;;;;;;;;5047200;28;20012;-70
2022/05/21 17:50:31;;;;;;;;;;;;;;;;;;5053216;28;19924;-70
2022/05/21 17:53:16;;;;;;;;;;;;;;;;;;5066579;28;19917;-69
2022/05/21 17:56:02;;;;;;;;;;;;;;;;;;5052093;28;19908;-69
2022/05/21 17:58:47;;;;;;;;;;;;;;;;;;5055363;28;19926;-74
2022/05/21 18:01:33;;;;;;;;;;;;;;;;;;5073186;28;19998;-67
2022/05/21 18:04:18;;;;;;;;;;;;;;;;;;5054564;28;19924;-66
2022/05/21 18:07:04;;;;;;;;;;;;;;;;;;5052313;28;20385;-67
2022/05/21 18:09:49;;;;;;;;;;;;;;;;;;5039840;28;19913;-65
2022/05/21 18:12:34;;;;;;;;;;;;;;;;;;5052997;28;20280;-67
2022/05/21 18:21:28;;;;;;;;;;;;;;;;;;5042792;28;20372;-63
2022/05/21 18:24:14;;;;;;;;;;;;;;;;;;5053674;28;20285;-62
2022/05/21 18:27:01;;;;;;;;;;;;;;;;;;5046509;28;19968;-62
2022/05/21 18:29:47;;;;;;;;;;;;;;;;;;5051712;28;19956;-61
2022/05/21 18:32:33;;;;;;;;;;;;;;;;;;5052525;28;19917;-63
2022/05/21 18:35:19;;;;;;;;;;;;;;;;;;5052613;28;19908;-73
2022/05/21 18:38:04;;;;;;;;;;;;;;;;;;5047779;28;20402;-69
2022/05/21 18:40:50;;;;;;;;;;;;;;;;;;5040645;28;19909;-69
2022/05/21 18:43:35;;;;;;;;;;;;;;;;;;5046860;28;19916;-69
2022/05/21 18:46:22;;;;;;;;;;;;;;;;;;5048909;28;20003;-69
2022/05/21 18:49:09;;;;;;;;;;;;;;;;;;5045956;28;20275;-68
2022/05/21 18:51:55;;;;;;;;;;;;;;;;;;5025337;28;19952;-69
2022/05/21 18:54:41;;;;;;;;;;;;;;;;;;5052126;28;19917;-75
2022/05/21 18:57:26;;;;;;;;;;;;;;;;;;5037656;28;19919;-74
2022/05/21 19:00:12;;;;;;;;;;;;;;;;;;5051929;28;20372;-75
2022/05/21 19:02:57;;;;;;;;;;;;;;;;;;5052613;28;19909;-74
2022/05/21 19:05:43;;;;;;;;;;;;;;;;;;5042690;28;19916;-75
2022/05/21 19:08:29;;;;;;;;;;;;;;;;;;5050631;28;19999;-74
2022/05/21 19:11:14;;;;;;;;;;;;;;;;;;5031699;28;19921;-61
2022/05/21 19:13:59;;;;;;;;;;;;;;;;;;5063544;28;19909;-69
2022/05/21 19:16:45;;;;;;;;;;;;;;;;;;5054452;28;19913;-68
2022/05/21 19:19:30;;;;;;;;;;;;;;;;;;5037809;28;19917;-70
2022/05/21 19:22:16;;;;;;;;;;;;;;;;;;5047547;28;19928;-68
2022/05/21 19:25:01;;;;;;;;;;;;;;;;;;5051357;28;19913;-70
2022/05/21 19:27:47;;;;;;;;;;;;;;;;;;5066174;28;20256;-70
2022/05/21 19:30:34;;;;;;;;;;;;;;;;;;5037071;28;20229;-63
2022/05/21 19:33:21;;;;;;;;;;;;;;;;;;5051871;28;19954;-67
2022/05/21 19:36:07;;;;;;;;;;;;;;;;;;5051162;28;19909;-69
2022/05/21 19:38:52;;;;;;;;;;;;;;;;;;5039226;28;19996;-67
2022/05/21 19:41:38;;;;;;;;;;;;;;;;;;5031208;28;19909;-67
2022/05/21 19:44:24;;;;;;;;;;;;;;;;;;5052373;28;19909;-67
2022/05/21 19:47:10;;;;;;;;;;;;;;;;;;5055979;28;19908;-65